sensor_id;sensor_type;location;lat;lon;timestamp;P1;durP1;ratioP1;P2;durP2;ratioP2
295;SDS011;132;48.770;9.200;2022-07-21T00:01:39;28.83;;;20.93;;
295;SDS011;132;48.770;9.200;2022-07-21T00:04:26;31.00;;;20.40;;
295;SDS011;132;48.770;9.200;2022-07-21T00:07:12;36.77;;;22.90;;
295;SDS011;132;48.770;9.200;2022-07-21T00:09:59;30.30;;;19.97;;
295;SDS011;132;48.770;9.200;2022-07-21T00:12:46;29.60;;;21.23;;
295;SDS011;132;48.770;9.200;2022-07-21T00:15:33;27.10;;;20.00;;
295;SDS011;132;48.770;9.200;2022-07-21T00:18:19;28.67;;;20.47;;
295;SDS011;132;48.770;9.200;2022-07-21T00:21:06;26.53;;;19.27;;
295;SDS011;132;48.770;9.200;2022-07-21T00:23:53;29.07;;;21.10;;
295;SDS011;132;48.770;9.200;2022-07-21T00:26:40;27.27;;;19.73;;
295;SDS011;132;48.770;9.200;2022-07-21T00:29:28;34.50;;;21.90;;
295;SDS011;132;48.770;9.200;2022-07-21T00:32:15;25.90;;;19.20;;
295;SDS011;132;48.770;9.200;2022-07-21T00:35:02;29.10;;;20.87;;
295;SDS011;132;48.770;9.200;2022-07-21T00:37:51;28.40;;;20.43;;
295;SDS011;132;48.770;9.200;2022-07-21T00:40:38;28.63;;;20.73;;
295;SDS011;132;48.770;9.200;2022-07-21T00:43:24;27.43;;;21.13;;
295;SDS011;132;48.770;9.200;2022-07-21T00:46:11;28.10;;;20.80;;
295;SDS011;132;48.770;9.200;2022-07-21T00:48:58;29.13;;;21.10;;
295;SDS011;132;48.770;9.200;2022-07-21T00:51:44;30.80;;;20.40;;
295;SDS011;132;48.770;9.200;2022-07-21T00:54:32;28.10;;;20.40;;
295;SDS011;132;48.770;9.200;2022-07-21T00:57:18;26.80;;;21.00;;
295;SDS011;132;48.770;9.200;2022-07-21T01:00:06;25.20;;;18.70;;
295;SDS011;132;48.770;9.200;2022-07-21T01:02:55;28.93;;;20.30;;
295;SDS011;132;48.770;9.200;2022-07-21T01:05:43;26.80;;;19.80;;
295;SDS011;132;48.770;9.200;2022-07-21T01:08:30;26.20;;;19.77;;
295;SDS011;132;48.770;9.200;2022-07-21T01:11:18;26.63;;;18.87;;
295;SDS011;132;48.770;9.200;2022-07-21T01:14:06;24.60;;;18.47;;
295;SDS011;132;48.770;9.200;2022-07-21T01:16:53;27.40;;;17.67;;
295;SDS011;132;48.770;9.200;2022-07-21T01:19:40;24.10;;;17.47;;
295;SDS011;132;48.770;9.200;2022-07-21T01:22:27;23.07;;;16.27;;
295;SDS011;132;48.770;9.200;2022-07-21T01:25:14;24.53;;;17.97;;
295;SDS011;132;48.770;9.200;2022-07-21T01:28:01;26.53;;;19.07;;
295;SDS011;132;48.770;9.200;2022-07-21T01:30:48;26.00;;;17.67;;
295;SDS011;132;48.770;9.200;2022-07-21T01:33:34;24.70;;;18.57;;
295;SDS011;132;48.770;9.200;2022-07-21T01:36:21;23.93;;;18.60;;
295;SDS011;132;48.770;9.200;2022-07-21T01:39:08;27.13;;;18.37;;
295;SDS011;132;48.770;9.200;2022-07-21T01:42:13;27.40;;;18.70;;
295;SDS011;132;48.770;9.200;2022-07-21T01:44:59;21.17;;;16.60;;
295;SDS011;132;48.770;9.200;2022-07-21T01:47:46;22.20;;;16.20;;
295;SDS011;132;48.770;9.200;2022-07-21T01:50:33;21.27;;;17.07;;
295;SDS011;132;48.770;9.200;2022-07-21T01:53:19;20.63;;;15.80;;
295;SDS011;132;48.770;9.200;2022-07-21T01:56:06;21.33;;;16.20;;
295;SDS011;132;48.770;9.200;2022-07-21T01:58:54;23.93;;;15.63;;
295;SDS011;132;48.770;9.200;2022-07-21T02:01:41;22.30;;;15.03;;
295;SDS011;132;48.770;9.200;2022-07-21T02:04:28;20.47;;;14.40;;
295;SDS011;132;48.770;9.200;2022-07-21T02:07:15;17.83;;;14.00;;
295;SDS011;132;48.770;9.200;2022-07-21T02:10:02;19.83;;;14.43;;
295;SDS011;132;48.770;9.200;2022-07-21T02:12:49;16.93;;;12.90;;
295;SDS011;132;48.770;9.200;2022-07-21T02:15:36;18.70;;;13.07;;
295;SDS011;132;48.770;9.200;2022-07-21T02:18:23;16.97;;;13.63;;
295;SDS011;132;48.770;9.200;2022-07-21T02:21:10;16.97;;;12.60;;
295;SDS011;132;48.770;9.200;2022-07-21T02:23:56;17.50;;;12.70;;
295;SDS011;132;48.770;9.200;2022-07-21T02:26:43;17.33;;;12.60;;
295;SDS011;132;48.770;9.200;2022-07-21T02:29:30;20.83;;;13.87;;
295;SDS011;132;48.770;9.200;2022-07-21T02:32:16;20.30;;;13.30;;
295;SDS011;132;48.770;9.200;2022-07-21T02:35:03;20.93;;;13.70;;
295;SDS011;132;48.770;9.200;2022-07-21T02:37:51;19.70;;;13.90;;
295;SDS011;132;48.770;9.200;2022-07-21T02:40:38;17.30;;;13.40;;
295;SDS011;132;48.770;9.200;2022-07-21T02:43:24;15.60;;;12.27;;
295;SDS011;132;48.770;9.200;2022-07-21T02:46:11;18.47;;;12.80;;
295;SDS011;132;48.770;9.200;2022-07-21T02:48:58;17.53;;;12.30;;
295;SDS011;132;48.770;9.200;2022-07-21T02:51:45;17.93;;;13.03;;
295;SDS011;132;48.770;9.200;2022-07-21T02:54:32;19.73;;;12.87;;
295;SDS011;132;48.770;9.200;2022-07-21T02:57:18;16.90;;;12.30;;
295;SDS011;132;48.770;9.200;2022-07-21T03:00:05;17.80;;;12.67;;
295;SDS011;132;48.770;9.200;2022-07-21T03:02:54;17.53;;;12.40;;
295;SDS011;132;48.770;9.200;2022-07-21T03:05:40;17.30;;;12.40;;
295;SDS011;132;48.770;9.200;2022-07-21T03:08:28;17.97;;;13.40;;
295;SDS011;132;48.770;9.200;2022-07-21T03:11:15;16.10;;;11.87;;
295;SDS011;132;48.770;9.200;2022-07-21T03:14:02;15.83;;;12.10;;
295;SDS011;132;48.770;9.200;2022-07-21T03:16:48;20.87;;;12.87;;
295;SDS011;132;48.770;9.200;2022-07-21T03:19:35;14.60;;;10.57;;
295;SDS011;132;48.770;9.200;2022-07-21T03:22:22;13.70;;;10.30;;
295;SDS011;132;48.770;9.200;2022-07-21T03:25:08;15.70;;;11.40;;
295;SDS011;132;48.770;9.200;2022-07-21T03:27:55;14.83;;;11.20;;
295;SDS011;132;48.770;9.200;2022-07-21T03:30:42;14.70;;;11.00;;
295;SDS011;132;48.770;9.200;2022-07-21T03:33:29;13.00;;;10.03;;
295;SDS011;132;48.770;9.200;2022-07-21T03:36:15;12.70;;;9.80;;
295;SDS011;132;48.770;9.200;2022-07-21T03:39:02;13.27;;;10.50;;
295;SDS011;132;48.770;9.200;2022-07-21T03:41:49;14.33;;;10.73;;
295;SDS011;132;48.770;9.200;2022-07-21T03:44:35;13.87;;;9.80;;
295;SDS011;132;48.770;9.200;2022-07-21T03:47:22;12.13;;;9.80;;
295;SDS011;132;48.770;9.200;2022-07-21T03:50:08;14.50;;;9.90;;
295;SDS011;132;48.770;9.200;2022-07-21T03:52:58;13.30;;;10.77;;
295;SDS011;132;48.770;9.200;2022-07-21T03:55:45;12.43;;;9.00;;
295;SDS011;132;48.770;9.200;2022-07-21T03:58:32;13.67;;;10.50;;
295;SDS011;132;48.770;9.200;2022-07-21T04:01:18;14.83;;;10.30;;
295;SDS011;132;48.770;9.200;2022-07-21T04:04:05;15.37;;;11.23;;
295;SDS011;132;48.770;9.200;2022-07-21T04:06:52;12.80;;;10.43;;
295;SDS011;132;48.770;9.200;2022-07-21T04:09:38;22.20;;;12.40;;
295;SDS011;132;48.770;9.200;2022-07-21T04:12:26;19.10;;;10.97;;
295;SDS011;132;48.770;9.200;2022-07-21T04:15:13;18.07;;;12.20;;
295;SDS011;132;48.770;9.200;2022-07-21T04:17:59;14.77;;;10.80;;
295;SDS011;132;48.770;9.200;2022-07-21T04:20:46;20.23;;;13.30;;
295;SDS011;132;48.770;9.200;2022-07-21T04:23:33;20.63;;;12.10;;
295;SDS011;132;48.770;9.200;2022-07-21T04:26:19;16.07;;;11.50;;
295;SDS011;132;48.770;9.200;2022-07-21T04:29:06;15.83;;;12.37;;
295;SDS011;132;48.770;9.200;2022-07-21T04:31:53;16.30;;;11.60;;
295;SDS011;132;48.770;9.200;2022-07-21T04:34:40;22.10;;;12.73;;
295;SDS011;132;48.770;9.200;2022-07-21T04:37:27;15.77;;;12.20;;
295;SDS011;132;48.770;9.200;2022-07-21T04:40:13;16.17;;;12.40;;
295;SDS011;132;48.770;9.200;2022-07-21T04:43:01;17.10;;;13.00;;
295;SDS011;132;48.770;9.200;2022-07-21T04:45:47;16.57;;;12.80;;
295;SDS011;132;48.770;9.200;2022-07-21T04:48:34;19.60;;;12.30;;
295;SDS011;132;48.770;9.200;2022-07-21T04:51:21;15.77;;;12.53;;
295;SDS011;132;48.770;9.200;2022-07-21T04:54:07;19.70;;;12.37;;
295;SDS011;132;48.770;9.200;2022-07-21T04:56:54;19.27;;;13.53;;
295;SDS011;132;48.770;9.200;2022-07-21T04:59:41;19.80;;;12.80;;
295;SDS011;132;48.770;9.200;2022-07-21T05:02:28;16.00;;;12.87;;
295;SDS011;132;48.770;9.200;2022-07-21T05:05:14;19.70;;;14.40;;
295;SDS011;132;48.770;9.200;2022-07-21T05:08:01;16.50;;;12.00;;
295;SDS011;132;48.770;9.200;2022-07-21T05:10:48;17.93;;;12.63;;
295;SDS011;132;48.770;9.200;2022-07-21T05:13:34;16.10;;;12.60;;
295;SDS011;132;48.770;9.200;2022-07-21T05:16:21;15.80;;;12.50;;
295;SDS011;132;48.770;9.200;2022-07-21T05:19:08;16.90;;;11.53;;
295;SDS011;132;48.770;9.200;2022-07-21T05:21:55;15.30;;;12.50;;
295;SDS011;132;48.770;9.200;2022-07-21T05:24:42;15.70;;;11.90;;
295;SDS011;132;48.770;9.200;2022-07-21T05:27:28;15.50;;;10.67;;
295;SDS011;132;48.770;9.200;2022-07-21T05:30:15;20.03;;;12.03;;
295;SDS011;132;48.770;9.200;2022-07-21T05:33:01;16.70;;;10.87;;
295;SDS011;132;48.770;9.200;2022-07-21T05:35:48;18.13;;;11.10;;
295;SDS011;132;48.770;9.200;2022-07-21T05:38:35;14.60;;;10.70;;
295;SDS011;132;48.770;9.200;2022-07-21T05:41:22;14.27;;;10.80;;
295;SDS011;132;48.770;9.200;2022-07-21T05:44:09;14.20;;;10.80;;
295;SDS011;132;48.770;9.200;2022-07-21T05:46:55;13.77;;;10.60;;
295;SDS011;132;48.770;9.200;2022-07-21T05:49:42;17.00;;;12.10;;
295;SDS011;132;48.770;9.200;2022-07-21T05:52:28;13.03;;;11.10;;
295;SDS011;132;48.770;9.200;2022-07-21T05:55:15;20.80;;;12.30;;
295;SDS011;132;48.770;9.200;2022-07-21T05:58:02;20.13;;;11.97;;
295;SDS011;132;48.770;9.200;2022-07-21T06:00:48;14.67;;;11.00;;
295;SDS011;132;48.770;9.200;2022-07-21T06:03:54;17.57;;;11.00;;
295;SDS011;132;48.770;9.200;2022-07-21T06:06:40;13.20;;;10.77;;
295;SDS011;132;48.770;9.200;2022-07-21T06:09:27;16.93;;;11.10;;
295;SDS011;132;48.770;9.200;2022-07-21T06:12:14;13.47;;;10.57;;
295;SDS011;132;48.770;9.200;2022-07-21T06:15:00;13.33;;;10.53;;
295;SDS011;132;48.770;9.200;2022-07-21T06:17:47;14.07;;;10.63;;
295;SDS011;132;48.770;9.200;2022-07-21T06:20:34;14.90;;;11.17;;
295;SDS011;132;48.770;9.200;2022-07-21T06:23:21;12.70;;;10.30;;
295;SDS011;132;48.770;9.200;2022-07-21T06:26:08;12.87;;;10.37;;
295;SDS011;132;48.770;9.200;2022-07-21T06:28:55;15.37;;;10.93;;
295;SDS011;132;48.770;9.200;2022-07-21T06:31:42;15.90;;;10.60;;
295;SDS011;132;48.770;9.200;2022-07-21T06:34:28;11.37;;;9.40;;
295;SDS011;132;48.770;9.200;2022-07-21T06:37:15;12.97;;;10.63;;
295;SDS011;132;48.770;9.200;2022-07-21T06:40:02;14.43;;;11.60;;
295;SDS011;132;48.770;9.200;2022-07-21T06:42:50;13.37;;;10.50;;
295;SDS011;132;48.770;9.200;2022-07-21T06:45:36;14.73;;;10.63;;
295;SDS011;132;48.770;9.200;2022-07-21T06:48:23;13.00;;;10.23;;
295;SDS011;132;48.770;9.200;2022-07-21T06:51:10;16.73;;;11.20;;
295;SDS011;132;48.770;9.200;2022-07-21T06:53:57;15.80;;;10.10;;
295;SDS011;132;48.770;9.200;2022-07-21T06:56:43;15.13;;;10.20;;
295;SDS011;132;48.770;9.200;2022-07-21T06:59:30;14.90;;;10.50;;
295;SDS011;132;48.770;9.200;2022-07-21T07:02:17;12.40;;;9.60;;
295;SDS011;132;48.770;9.200;2022-07-21T07:05:03;15.00;;;9.83;;
295;SDS011;132;48.770;9.200;2022-07-21T07:07:50;13.00;;;9.60;;
295;SDS011;132;48.770;9.200;2022-07-21T07:10:37;12.07;;;9.00;;
295;SDS011;132;48.770;9.200;2022-07-21T07:13:24;9.73;;;8.60;;
295;SDS011;132;48.770;9.200;2022-07-21T07:16:10;14.27;;;9.80;;
295;SDS011;132;48.770;9.200;2022-07-21T07:18:57;16.87;;;9.63;;
295;SDS011;132;48.770;9.200;2022-07-21T07:21:44;12.10;;;9.40;;
295;SDS011;132;48.770;9.200;2022-07-21T07:24:31;14.87;;;10.27;;
295;SDS011;132;48.770;9.200;2022-07-21T07:27:17;11.37;;;9.17;;
295;SDS011;132;48.770;9.200;2022-07-21T07:30:04;10.23;;;8.43;;
295;SDS011;132;48.770;9.200;2022-07-21T07:32:51;13.00;;;8.77;;
295;SDS011;132;48.770;9.200;2022-07-21T07:35:38;15.10;;;8.90;;
295;SDS011;132;48.770;9.200;2022-07-21T07:38:24;12.17;;;9.23;;
295;SDS011;132;48.770;9.200;2022-07-21T07:41:11;11.30;;;9.07;;
295;SDS011;132;48.770;9.200;2022-07-21T07:43:58;14.43;;;9.77;;
295;SDS011;132;48.770;9.200;2022-07-21T07:46:45;12.43;;;9.30;;
295;SDS011;132;48.770;9.200;2022-07-21T07:49:32;12.50;;;8.70;;
295;SDS011;132;48.770;9.200;2022-07-21T07:52:19;15.10;;;9.03;;
295;SDS011;132;48.770;9.200;2022-07-21T07:55:07;13.13;;;8.80;;
295;SDS011;132;48.770;9.200;2022-07-21T07:57:56;10.43;;;8.80;;
295;SDS011;132;48.770;9.200;2022-07-21T08:00:43;10.77;;;8.50;;
295;SDS011;132;48.770;9.200;2022-07-21T08:03:29;13.80;;;8.80;;
295;SDS011;132;48.770;9.200;2022-07-21T08:06:16;11.70;;;9.20;;
295;SDS011;132;48.770;9.200;2022-07-21T08:09:03;11.73;;;8.53;;
295;SDS011;132;48.770;9.200;2022-07-21T08:11:50;11.70;;;8.20;;
295;SDS011;132;48.770;9.200;2022-07-21T08:14:38;10.17;;;8.47;;
295;SDS011;132;48.770;9.200;2022-07-21T08:17:25;10.97;;;8.77;;
295;SDS011;132;48.770;9.200;2022-07-21T08:20:11;13.40;;;8.20;;
295;SDS011;132;48.770;9.200;2022-07-21T08:22:58;15.60;;;8.30;;
295;SDS011;132;48.770;9.200;2022-07-21T08:25:45;12.20;;;8.13;;
295;SDS011;132;48.770;9.200;2022-07-21T08:28:32;8.83;;;7.30;;
295;SDS011;132;48.770;9.200;2022-07-21T08:31:18;9.30;;;7.87;;
295;SDS011;132;48.770;9.200;2022-07-21T08:34:05;9.60;;;7.60;;
295;SDS011;132;48.770;9.200;2022-07-21T08:36:52;10.20;;;8.10;;
295;SDS011;132;48.770;9.200;2022-07-21T08:39:39;11.80;;;9.23;;
295;SDS011;132;48.770;9.200;2022-07-21T08:42:26;11.47;;;9.40;;
295;SDS011;132;48.770;9.200;2022-07-21T08:45:13;9.53;;;8.03;;
295;SDS011;132;48.770;9.200;2022-07-21T08:47:59;10.03;;;7.73;;
295;SDS011;132;48.770;9.200;2022-07-21T08:50:46;11.40;;;8.20;;
295;SDS011;132;48.770;9.200;2022-07-21T08:53:33;8.83;;;6.73;;
295;SDS011;132;48.770;9.200;2022-07-21T08:56:20;10.40;;;7.10;;
295;SDS011;132;48.770;9.200;2022-07-21T08:59:06;8.37;;;7.07;;
295;SDS011;132;48.770;9.200;2022-07-21T09:01:53;8.87;;;7.50;;
295;SDS011;132;48.770;9.200;2022-07-21T09:04:39;10.63;;;7.77;;
295;SDS011;132;48.770;9.200;2022-07-21T09:07:26;9.70;;;7.33;;
295;SDS011;132;48.770;9.200;2022-07-21T09:10:13;11.20;;;7.73;;
295;SDS011;132;48.770;9.200;2022-07-21T09:13:01;11.37;;;7.50;;
295;SDS011;132;48.770;9.200;2022-07-21T09:15:52;11.10;;;7.40;;
295;SDS011;132;48.770;9.200;2022-07-21T09:18:51;10.00;;;6.90;;
295;SDS011;132;48.770;9.200;2022-07-21T09:21:38;10.33;;;7.03;;
295;SDS011;132;48.770;9.200;2022-07-21T09:24:26;9.47;;;6.93;;
295;SDS011;132;48.770;9.200;2022-07-21T09:27:23;9.67;;;7.00;;
295;SDS011;132;48.770;9.200;2022-07-21T09:30:10;10.07;;;6.70;;
295;SDS011;132;48.770;9.200;2022-07-21T09:32:57;8.30;;;6.53;;
295;SDS011;132;48.770;9.200;2022-07-21T09:35:51;7.60;;;6.40;;
295;SDS011;132;48.770;9.200;2022-07-21T09:38:53;8.47;;;6.20;;
295;SDS011;132;48.770;9.200;2022-07-21T09:41:44;8.70;;;6.67;;
295;SDS011;132;48.770;9.200;2022-07-21T09:44:30;11.57;;;7.00;;
295;SDS011;132;48.770;9.200;2022-07-21T09:47:18;8.93;;;7.20;;
295;SDS011;132;48.770;9.200;2022-07-21T09:50:07;12.50;;;7.20;;
295;SDS011;132;48.770;9.200;2022-07-21T09:52:55;10.63;;;7.00;;
295;SDS011;132;48.770;9.200;2022-07-21T09:55:43;8.00;;;6.53;;
295;SDS011;132;48.770;9.200;2022-07-21T09:58:30;10.07;;;7.07;;
295;SDS011;132;48.770;9.200;2022-07-21T10:01:17;7.47;;;6.60;;
295;SDS011;132;48.770;9.200;2022-07-21T10:04:04;8.40;;;6.50;;
295;SDS011;132;48.770;9.200;2022-07-21T10:06:51;7.10;;;6.37;;
295;SDS011;132;48.770;9.200;2022-07-21T10:09:38;6.73;;;5.93;;
295;SDS011;132;48.770;9.200;2022-07-21T10:12:26;7.20;;;6.10;;
295;SDS011;132;48.770;9.200;2022-07-21T10:15:13;7.63;;;6.10;;
295;SDS011;132;48.770;9.200;2022-07-21T10:18:01;10.20;;;5.90;;
295;SDS011;132;48.770;9.200;2022-07-21T10:20:50;8.77;;;5.70;;
295;SDS011;132;48.770;9.200;2022-07-21T10:23:41;12.17;;;6.23;;
295;SDS011;132;48.770;9.200;2022-07-21T10:26:29;7.10;;;5.10;;
295;SDS011;132;48.770;9.200;2022-07-21T10:29:47;7.20;;;5.10;;
295;SDS011;132;48.770;9.200;2022-07-21T10:32:36;6.27;;;5.20;;
295;SDS011;132;48.770;9.200;2022-07-21T10:35:26;7.30;;;5.47;;
295;SDS011;132;48.770;9.200;2022-07-21T10:38:34;8.43;;;5.83;;
295;SDS011;132;48.770;9.200;2022-07-21T10:41:37;8.23;;;5.43;;
295;SDS011;132;48.770;9.200;2022-07-21T10:50:06;6.53;;;5.50;;
295;SDS011;132;48.770;9.200;2022-07-21T10:52:56;8.53;;;5.60;;
295;SDS011;132;48.770;9.200;2022-07-21T10:55:49;7.73;;;5.40;;
295;SDS011;132;48.770;9.200;2022-07-21T10:58:37;5.70;;;4.80;;
295;SDS011;132;48.770;9.200;2022-07-21T11:01:25;5.83;;;5.53;;
295;SDS011;132;48.770;9.200;2022-07-21T11:04:13;6.70;;;5.50;;
295;SDS011;132;48.770;9.200;2022-07-21T11:07:03;7.70;;;5.60;;
295;SDS011;132;48.770;9.200;2022-07-21T11:10:13;7.33;;;5.73;;
295;SDS011;132;48.770;9.200;2022-07-21T11:13:02;5.50;;;5.03;;
295;SDS011;132;48.770;9.200;2022-07-21T11:15:56;6.63;;;4.97;;
295;SDS011;132;48.770;9.200;2022-07-21T11:18:44;7.00;;;5.10;;
295;SDS011;132;48.770;9.200;2022-07-21T11:21:31;6.50;;;5.10;;
295;SDS011;132;48.770;9.200;2022-07-21T11:24:18;7.63;;;5.63;;
295;SDS011;132;48.770;9.200;2022-07-21T11:27:08;6.83;;;6.27;;
295;SDS011;132;48.770;9.200;2022-07-21T11:30:02;6.77;;;5.07;;
295;SDS011;132;48.770;9.200;2022-07-21T11:32:51;5.67;;;4.80;;
295;SDS011;132;48.770;9.200;2022-07-21T11:35:38;6.47;;;6.07;;
295;SDS011;132;48.770;9.200;2022-07-21T11:38:24;5.47;;;5.17;;
295;SDS011;132;48.770;9.200;2022-07-21T11:41:12;6.70;;;5.70;;
295;SDS011;132;48.770;9.200;2022-07-21T11:44:00;5.23;;;4.93;;
295;SDS011;132;48.770;9.200;2022-07-21T11:46:48;6.57;;;5.60;;
295;SDS011;132;48.770;9.200;2022-07-21T11:49:39;8.03;;;5.17;;
295;SDS011;132;48.770;9.200;2022-07-21T11:52:31;5.40;;;5.13;;
295;SDS011;132;48.770;9.200;2022-07-21T11:55:19;6.60;;;4.93;;
295;SDS011;132;48.770;9.200;2022-07-21T11:58:12;6.43;;;5.43;;
295;SDS011;132;48.770;9.200;2022-07-21T12:01:04;6.50;;;5.47;;
295;SDS011;132;48.770;9.200;2022-07-21T12:03:51;7.37;;;5.30;;
295;SDS011;132;48.770;9.200;2022-07-21T12:06:38;7.90;;;5.53;;
295;SDS011;132;48.770;9.200;2022-07-21T12:09:25;6.90;;;5.20;;
295;SDS011;132;48.770;9.200;2022-07-21T12:12:12;7.03;;;4.90;;
295;SDS011;132;48.770;9.200;2022-07-21T12:15:18;7.40;;;5.40;;
295;SDS011;132;48.770;9.200;2022-07-21T12:18:06;7.37;;;5.53;;
295;SDS011;132;48.770;9.200;2022-07-21T12:21:03;9.30;;;5.37;;
295;SDS011;132;48.770;9.200;2022-07-21T12:23:52;7.40;;;6.07;;
295;SDS011;132;48.770;9.200;2022-07-21T12:26:38;6.00;;;5.40;;
295;SDS011;132;48.770;9.200;2022-07-21T12:29:26;7.17;;;5.80;;
295;SDS011;132;48.770;9.200;2022-07-21T12:32:14;5.63;;;5.00;;
295;SDS011;132;48.770;9.200;2022-07-21T12:35:32;8.27;;;5.37;;
295;SDS011;132;48.770;9.200;2022-07-21T12:38:19;9.73;;;5.60;;
295;SDS011;132;48.770;9.200;2022-07-21T12:41:07;6.33;;;5.80;;
295;SDS011;132;48.770;9.200;2022-07-21T12:43:58;9.03;;;5.60;;
295;SDS011;132;48.770;9.200;2022-07-21T12:46:47;9.40;;;5.50;;
295;SDS011;132;48.770;9.200;2022-07-21T12:49:48;6.70;;;6.13;;
295;SDS011;132;48.770;9.200;2022-07-21T12:52:50;9.67;;;6.93;;
295;SDS011;132;48.770;9.200;2022-07-21T12:55:36;7.67;;;6.20;;
295;SDS011;132;48.770;9.200;2022-07-21T12:58:24;7.70;;;6.30;;
295;SDS011;132;48.770;9.200;2022-07-21T13:01:10;13.13;;;7.60;;
295;SDS011;132;48.770;9.200;2022-07-21T13:03:58;6.77;;;6.40;;
295;SDS011;132;48.770;9.200;2022-07-21T13:06:45;10.60;;;6.57;;
295;SDS011;132;48.770;9.200;2022-07-21T13:09:31;7.90;;;6.70;;
295;SDS011;132;48.770;9.200;2022-07-21T13:12:18;9.10;;;8.13;;
295;SDS011;132;48.770;9.200;2022-07-21T13:15:05;7.80;;;7.30;;
295;SDS011;132;48.770;9.200;2022-07-21T13:17:52;9.43;;;6.60;;
295;SDS011;132;48.770;9.200;2022-07-21T13:20:39;8.20;;;7.07;;
295;SDS011;132;48.770;9.200;2022-07-21T13:23:26;7.63;;;6.83;;
295;SDS011;132;48.770;9.200;2022-07-21T13:26:12;9.80;;;7.27;;
295;SDS011;132;48.770;9.200;2022-07-21T13:28:59;10.30;;;7.70;;
295;SDS011;132;48.770;9.200;2022-07-21T13:31:48;9.27;;;8.80;;
295;SDS011;132;48.770;9.200;2022-07-21T13:34:34;9.43;;;7.97;;
295;SDS011;132;48.770;9.200;2022-07-21T13:37:21;8.80;;;7.27;;
295;SDS011;132;48.770;9.200;2022-07-21T13:40:08;8.30;;;7.10;;
295;SDS011;132;48.770;9.200;2022-07-21T13:42:55;13.60;;;10.17;;
295;SDS011;132;48.770;9.200;2022-07-21T13:45:42;10.77;;;8.23;;
295;SDS011;132;48.770;9.200;2022-07-21T13:48:29;9.10;;;8.60;;
295;SDS011;132;48.770;9.200;2022-07-21T13:51:16;17.37;;;16.47;;
295;SDS011;132;48.770;9.200;2022-07-21T13:54:03;1012.87;;;964.57;;
295;SDS011;132;48.770;9.200;2022-07-21T13:56:50;1050.33;;;999.07;;
295;SDS011;132;48.770;9.200;2022-07-21T13:59:37;1075.33;;;999.90;;
295;SDS011;132;48.770;9.200;2022-07-21T14:02:24;1085.93;;;999.90;;
295;SDS011;132;48.770;9.200;2022-07-21T14:05:11;29.87;;;28.40;;
295;SDS011;132;48.770;9.200;2022-07-21T14:07:57;9.67;;;7.00;;
295;SDS011;132;48.770;9.200;2022-07-21T14:10:44;1065.20;;;999.90;;
295;SDS011;132;48.770;9.200;2022-07-21T14:13:31;1112.97;;;999.90;;
295;SDS011;132;48.770;9.200;2022-07-21T14:16:18;11.60;;;10.83;;
295;SDS011;132;48.770;9.200;2022-07-21T14:19:05;218.37;;;207.93;;
295;SDS011;132;48.770;9.200;2022-07-21T14:21:51;137.33;;;130.70;;
295;SDS011;132;48.770;9.200;2022-07-21T14:24:38;1119.13;;;999.90;;
295;SDS011;132;48.770;9.200;2022-07-21T14:27:44;1086.83;;;999.90;;
295;SDS011;132;48.770;9.200;2022-07-21T14:30:34;9.47;;;6.80;;
295;SDS011;132;48.770;9.200;2022-07-21T14:33:20;7.60;;;6.80;;
295;SDS011;132;48.770;9.200;2022-07-21T14:36:07;10.13;;;7.60;;
295;SDS011;132;48.770;9.200;2022-07-21T14:38:54;12.20;;;9.47;;
295;SDS011;132;48.770;9.200;2022-07-21T14:41:40;12.00;;;7.20;;
295;SDS011;132;48.770;9.200;2022-07-21T14:44:27;69.33;;;65.97;;
295;SDS011;132;48.770;9.200;2022-07-21T14:47:14;7.70;;;7.30;;
295;SDS011;132;48.770;9.200;2022-07-21T14:50:00;31.40;;;29.90;;
295;SDS011;132;48.770;9.200;2022-07-21T14:52:47;13.93;;;6.90;;
295;SDS011;132;48.770;9.200;2022-07-21T14:55:34;8.50;;;5.70;;
295;SDS011;132;48.770;9.200;2022-07-21T14:58:21;7.90;;;6.90;;
295;SDS011;132;48.770;9.200;2022-07-21T15:01:09;208.63;;;198.67;;
295;SDS011;132;48.770;9.200;2022-07-21T15:03:55;7.57;;;7.07;;
295;SDS011;132;48.770;9.200;2022-07-21T15:06:42;180.10;;;171.47;;
295;SDS011;132;48.770;9.200;2022-07-21T15:09:31;8.37;;;7.70;;
295;SDS011;132;48.770;9.200;2022-07-21T15:12:17;8.20;;;6.70;;
295;SDS011;132;48.770;9.200;2022-07-21T15:15:04;8.20;;;6.73;;
295;SDS011;132;48.770;9.200;2022-07-21T15:17:51;7.30;;;6.00;;
295;SDS011;132;48.770;9.200;2022-07-21T15:20:38;8.00;;;6.80;;
295;SDS011;132;48.770;9.200;2022-07-21T15:23:26;1048.90;;;998.53;;
295;SDS011;132;48.770;9.200;2022-07-21T15:26:13;1026.57;;;977.63;;
295;SDS011;132;48.770;9.200;2022-07-21T15:28:59;1058.13;;;999.90;;
295;SDS011;132;48.770;9.200;2022-07-21T15:31:46;1036.93;;;987.50;;
295;SDS011;132;48.770;9.200;2022-07-21T15:34:33;987.77;;;940.70;;
295;SDS011;132;48.770;9.200;2022-07-21T15:37:19;288.70;;;274.90;;
295;SDS011;132;48.770;9.200;2022-07-21T15:40:06;7.20;;;6.70;;
295;SDS011;132;48.770;9.200;2022-07-21T15:42:54;6.83;;;6.00;;
295;SDS011;132;48.770;9.200;2022-07-21T15:45:40;8.10;;;5.40;;
295;SDS011;132;48.770;9.200;2022-07-21T15:48:27;12.67;;;5.30;;
295;SDS011;132;48.770;9.200;2022-07-21T15:51:14;5.13;;;4.60;;
295;SDS011;132;48.770;9.200;2022-07-21T15:54:00;5.87;;;5.17;;
295;SDS011;132;48.770;9.200;2022-07-21T15:56:47;7.43;;;5.27;;
295;SDS011;132;48.770;9.200;2022-07-21T15:59:34;6.53;;;5.20;;
295;SDS011;132;48.770;9.200;2022-07-21T16:02:21;6.53;;;4.80;;
295;SDS011;132;48.770;9.200;2022-07-21T16:05:08;7.47;;;4.77;;
295;SDS011;132;48.770;9.200;2022-07-21T16:08:00;8.23;;;7.83;;
295;SDS011;132;48.770;9.200;2022-07-21T16:10:46;9.30;;;8.80;;
295;SDS011;132;48.770;9.200;2022-07-21T16:13:33;8.03;;;6.90;;
295;SDS011;132;48.770;9.200;2022-07-21T16:16:20;11.27;;;5.30;;
295;SDS011;132;48.770;9.200;2022-07-21T16:19:06;6.20;;;4.90;;
295;SDS011;132;48.770;9.200;2022-07-21T16:21:53;9.30;;;5.30;;
295;SDS011;132;48.770;9.200;2022-07-21T16:24:41;6.93;;;5.37;;
295;SDS011;132;48.770;9.200;2022-07-21T16:27:28;6.10;;;5.40;;
295;SDS011;132;48.770;9.200;2022-07-21T16:30:14;6.10;;;4.77;;
295;SDS011;132;48.770;9.200;2022-07-21T16:33:01;6.20;;;5.07;;
295;SDS011;132;48.770;9.200;2022-07-21T16:35:48;6.53;;;4.93;;
295;SDS011;132;48.770;9.200;2022-07-21T16:38:35;5.30;;;5.07;;
295;SDS011;132;48.770;9.200;2022-07-21T16:41:21;8.20;;;4.97;;
295;SDS011;132;48.770;9.200;2022-07-21T16:44:08;6.60;;;5.30;;
295;SDS011;132;48.770;9.200;2022-07-21T16:46:59;8.17;;;5.53;;
295;SDS011;132;48.770;9.200;2022-07-21T16:49:45;6.97;;;5.20;;
295;SDS011;132;48.770;9.200;2022-07-21T16:52:32;8.53;;;5.20;;
295;SDS011;132;48.770;9.200;2022-07-21T16:55:18;7.27;;;5.50;;
295;SDS011;132;48.770;9.200;2022-07-21T16:58:14;6.93;;;5.10;;
295;SDS011;132;48.770;9.200;2022-07-21T17:01:01;8.07;;;5.33;;
295;SDS011;132;48.770;9.200;2022-07-21T17:03:47;8.63;;;5.17;;
295;SDS011;132;48.770;9.200;2022-07-21T17:06:34;6.73;;;5.00;;
295;SDS011;132;48.770;9.200;2022-07-21T17:09:21;5.63;;;4.87;;
295;SDS011;132;48.770;9.200;2022-07-21T17:12:07;7.20;;;4.90;;
295;SDS011;132;48.770;9.200;2022-07-21T17:14:54;6.40;;;4.90;;
295;SDS011;132;48.770;9.200;2022-07-21T17:17:41;9.00;;;5.77;;
295;SDS011;132;48.770;9.200;2022-07-21T17:20:28;8.40;;;5.23;;
295;SDS011;132;48.770;9.200;2022-07-21T17:23:15;7.13;;;4.70;;
295;SDS011;132;48.770;9.200;2022-07-21T17:26:05;6.53;;;4.70;;
295;SDS011;132;48.770;9.200;2022-07-21T17:28:52;6.07;;;4.70;;
295;SDS011;132;48.770;9.200;2022-07-21T17:31:39;6.80;;;5.07;;
295;SDS011;132;48.770;9.200;2022-07-21T17:34:27;11.90;;;5.50;;
295;SDS011;132;48.770;9.200;2022-07-21T17:37:14;6.67;;;5.50;;
295;SDS011;132;48.770;9.200;2022-07-21T17:40:01;8.20;;;5.50;;
295;SDS011;132;48.770;9.200;2022-07-21T17:42:47;7.80;;;6.30;;